createdAt,value
2018-03-08T00:03:49.848Z,76.80
2018-03-08T00:08:53.202Z,77.30
2018-03-08T00:13:56.250Z,77.40
2018-03-08T00:18:59.577Z,77.80
2018-03-08T00:24:02.257Z,77.70
2018-03-08T00:29:04.874Z,77.90
2018-03-08T00:34:08.205Z,78.00
2018-03-08T00:39:11.475Z,77.90
2018-03-08T00:44:14.975Z,77.20
2018-03-08T00:49:24.890Z,77.80
2018-03-08T00:54:27.437Z,77.90
2018-03-08T00:59:30.753Z,78.10
2018-03-08T01:04:33.589Z,78.20
2018-03-08T01:09:36.233Z,78.00
2018-03-08T01:14:38.885Z,78.10
2018-03-08T01:19:41.469Z,77.60
2018-03-08T01:24:45.087Z,77.80
2018-03-08T01:29:48.561Z,79.00
2018-03-08T01:34:54.582Z,78.30
2018-03-08T01:39:57.446Z,78.10
2018-03-08T01:45:00.883Z,78.40
2018-03-08T01:50:04.148Z,78.40
2018-03-08T01:55:07.832Z,78.80
2018-03-08T02:00:11.185Z,78.70
2018-03-08T02:05:13.835Z,78.80
2018-03-08T02:10:17.208Z,78.80
2018-03-08T02:15:19.842Z,79.10
2018-03-08T02:20:22.830Z,78.80
2018-03-08T02:25:26.389Z,78.60
2018-03-08T02:30:29.801Z,78.80
2018-03-08T02:35:32.496Z,78.70
2018-03-08T02:40:36.147Z,78.80
2018-03-08T02:45:38.835Z,78.80
2018-03-08T02:50:41.734Z,79.10
2018-03-08T03:00:54.620Z,79.50
2018-03-08T03:05:57.958Z,80.00
2018-03-08T03:11:00.772Z,80.00
2018-03-08T03:16:04.506Z,80.10
2018-03-08T03:21:07.433Z,80.00
2018-03-08T03:26:10.128Z,80.20
2018-03-08T03:31:13.051Z,80.40
2018-03-08T03:36:15.952Z,80.10
2018-03-08T03:41:18.918Z,80.30
2018-03-08T03:46:21.554Z,80.10
2018-03-08T03:51:24.994Z,80.10
2018-03-08T03:56:27.698Z,80.10
2018-03-08T04:01:31.012Z,79.90
2018-03-08T04:06:33.630Z,79.90
2018-03-08T04:11:36.521Z,80.20
2018-03-08T04:16:40.048Z,80.40
2018-03-08T04:21:43.713Z,80.50
2018-03-08T04:26:46.735Z,80.10
2018-03-08T04:31:49.668Z,80.20
2018-03-08T04:36:52.958Z,80.20
2018-03-08T04:41:55.991Z,80.30
2018-03-08T04:46:59.273Z,80.10
2018-03-08T04:52:02.097Z,80.70
2018-03-08T04:57:06.286Z,81.10
2018-03-08T05:02:09.176Z,81.00
2018-03-08T05:07:12.571Z,80.80
2018-03-08T05:12:15.172Z,80.70
2018-03-08T05:17:18.057Z,81.30
2018-03-08T05:22:21.716Z,82.40
2018-03-08T05:27:24.559Z,82.80
2018-03-08T05:32:27.465Z,83.20
2018-03-08T05:37:31.512Z,83.00
2018-03-08T05:42:34.870Z,82.90
2018-03-08T05:47:37.640Z,83.50
2018-03-08T05:52:40.946Z,83.80
2018-03-08T05:57:44.193Z,83.80
2018-03-08T06:02:47.068Z,83.70
2018-03-08T06:07:49.897Z,83.30
2018-03-08T06:12:53.192Z,83.70
2018-03-08T06:17:55.995Z,84.10
2018-03-08T06:22:58.858Z,83.60
2018-03-08T06:28:03.092Z,84.20
2018-03-08T06:33:07.290Z,84.00
2018-03-08T06:38:09.955Z,83.90
2018-03-08T06:43:12.805Z,84.20
2018-03-08T06:48:16.127Z,84.00
2018-03-08T06:53:18.677Z,84.20
2018-03-08T06:58:22.395Z,83.70
2018-03-08T07:03:24.974Z,83.60
2018-03-08T07:08:27.755Z,84.10
2018-03-08T07:13:30.565Z,84.50
2018-03-08T07:18:33.391Z,84.20
2018-03-08T07:23:35.973Z,84.10
2018-03-08T07:28:38.600Z,83.70
2018-03-08T07:33:41.173Z,83.90
2018-03-08T07:38:44.443Z,83.70
2018-03-08T07:43:47.817Z,82.90
2018-03-08T07:48:50.790Z,82.70
2018-03-08T07:53:53.376Z,83.10
2018-03-08T07:58:56.290Z,82.60
2018-03-08T08:03:59.842Z,82.60
2018-03-08T08:09:09.012Z,82.60
2018-03-08T08:14:11.852Z,82.10
2018-03-08T08:19:14.655Z,81.70
2018-03-08T08:24:17.239Z,81.70
2018-03-08T08:29:19.861Z,80.80
2018-03-08T08:34:23.118Z,80.60
2018-03-08T08:39:25.676Z,80.80
2018-03-08T08:44:28.214Z,80.00
2018-03-08T08:49:31.487Z,79.80
2018-03-08T08:54:34.087Z,77.90
2018-03-08T08:59:38.347Z,76.90
2018-03-08T09:04:42.385Z,75.40
2018-03-08T09:09:45.198Z,75.30
2018-03-08T09:14:48.538Z,75.70
2018-03-08T09:19:51.825Z,75.60
2018-03-08T09:24:54.621Z,75.10
2018-03-08T09:29:57.406Z,75.10
2018-03-08T09:35:00.255Z,75.00
2018-03-08T09:40:03.084Z,74.80
2018-03-08T09:45:05.914Z,71.70
2018-03-08T09:50:08.718Z,70.40
2018-03-08T09:55:12.017Z,70.60
2018-03-08T10:00:15.202Z,69.50
2018-03-08T10:05:18.423Z,68.20
2018-03-08T10:10:21.230Z,66.20
2018-03-08T10:15:23.815Z,64.60
2018-03-08T10:20:27.201Z,65.40
2018-03-08T10:25:29.807Z,65.30
2018-03-08T10:30:35.701Z,65.90
2018-03-08T10:35:39.747Z,65.10
2018-03-08T10:45:45.895Z,65.40
2018-03-08T10:50:49.194Z,64.00
2018-03-08T10:55:51.998Z,66.00
2018-03-08T11:00:55.986Z,64.60
2018-03-08T11:05:58.808Z,64.70
2018-03-08T11:11:02.261Z,63.90
2018-03-08T11:16:05.489Z,64.00
2018-03-08T11:21:08.054Z,62.10
2018-03-08T11:26:11.398Z,62.70
2018-03-08T11:31:14.212Z,62.60
2018-03-08T11:36:17.115Z,62.40
2018-03-08T11:41:19.968Z,62.70
2018-03-08T11:46:22.514Z,62.10
2018-03-08T11:51:25.062Z,61.30
2018-03-08T11:56:27.619Z,59.40
2018-03-08T12:01:30.162Z,58.40
2018-03-08T12:06:32.710Z,59.20
2018-03-08T12:11:35.251Z,58.60
2018-03-08T12:16:37.787Z,58.30
2018-03-08T12:21:41.102Z,58.80
2018-03-08T12:26:44.419Z,54.20
2018-03-08T12:31:47.734Z,53.80
2018-03-08T12:36:50.263Z,53.80
2018-03-08T12:47:02.111Z,56.50
2018-03-08T12:52:04.962Z,53.30
2018-03-08T12:57:07.565Z,52.30
2018-03-08T13:02:10.154Z,51.50
2018-03-08T13:07:12.726Z,50.70
2018-03-08T13:12:15.367Z,51.10
2018-03-08T13:17:18.628Z,51.00
2018-03-08T13:22:21.968Z,51.40
2018-03-08T13:27:24.551Z,51.20
2018-03-08T13:32:27.179Z,50.30
2018-03-08T13:37:29.855Z,49.30
2018-03-08T13:42:36.142Z,48.20
2018-03-08T13:47:38.784Z,47.10
2018-03-08T13:52:41.395Z,48.70
2018-03-08T13:57:44.162Z,48.40
2018-03-08T14:02:47.528Z,46.90
2018-03-08T14:07:50.452Z,46.80
2018-03-08T14:12:54.847Z,49.20
2018-03-08T14:17:57.723Z,49.10
2018-03-08T14:23:01.083Z,47.90
2018-03-08T14:28:03.649Z,47.80
2018-03-08T14:33:06.198Z,47.60
2018-03-08T14:38:08.780Z,48.60
2018-03-08T14:43:11.604Z,48.20
2018-03-08T14:48:14.419Z,47.60
2018-03-08T14:53:17.008Z,47.20
2018-03-08T14:58:19.840Z,45.00
2018-03-08T15:03:22.633Z,45.10
2018-03-08T15:08:25.501Z,47.10
2018-03-08T15:13:28.790Z,45.80
2018-03-08T15:18:32.011Z,46.10
2018-03-08T15:23:35.048Z,46.70
2018-03-08T15:28:37.640Z,46.80
2018-03-08T15:33:40.546Z,47.70
2018-03-08T15:38:43.434Z,47.70
2018-03-08T15:43:46.317Z,47.00
2018-03-08T15:48:49.555Z,48.00
2018-03-08T15:53:52.134Z,47.40
2018-03-08T15:58:55.399Z,48.40
2018-03-08T16:03:58.019Z,48.60
2018-03-08T16:09:01.307Z,50.00
2018-03-08T16:14:04.135Z,50.00
2018-03-08T16:19:07.040Z,51.10
2018-03-08T16:24:09.650Z,50.90
2018-03-08T16:29:13.015Z,50.60
2018-03-08T16:34:15.554Z,51.60
2018-03-08T16:39:18.122Z,52.20
2018-03-08T16:44:21.302Z,52.80
2018-03-08T16:49:23.918Z,53.70
2018-03-08T16:54:26.733Z,53.40
2018-03-08T16:59:30.434Z,53.60
2018-03-08T17:04:33.027Z,53.60
2018-03-08T17:09:35.513Z,54.00
2018-03-08T17:14:38.141Z,54.30
2018-03-08T17:19:40.658Z,54.30
2018-03-08T17:24:44.066Z,54.40
2018-03-08T17:29:46.666Z,54.40
2018-03-08T17:34:49.314Z,54.80
2018-03-08T17:39:52.994Z,56.10
2018-03-08T17:44:55.619Z,56.10
2018-03-08T17:49:58.232Z,56.20
2018-03-08T17:55:01.539Z,56.40
2018-03-08T18:00:05.696Z,56.70
2018-03-08T18:05:09.496Z,56.70
2018-03-08T18:10:12.719Z,57.10
2018-03-08T18:15:15.289Z,57.10
2018-03-08T18:20:18.694Z,57.30
2018-03-08T18:25:21.290Z,57.60
2018-03-08T18:30:23.860Z,57.80
2018-03-08T18:35:26.644Z,57.80
2018-03-08T18:40:29.585Z,58.40
2018-03-08T18:45:33.813Z,58.10
2018-03-08T18:50:37.304Z,58.20
2018-03-08T18:55:40.180Z,58.30
2018-03-08T19:00:44.510Z,58.60
2018-03-08T19:05:47.077Z,58.70
2018-03-08T19:10:49.708Z,58.90
2018-03-08T19:15:53.037Z,59.00
2018-03-08T19:20:56.628Z,59.30
2018-03-08T19:25:59.486Z,59.30
2018-03-08T19:31:02.324Z,59.50
2018-03-08T19:36:05.005Z,59.60
2018-03-08T19:41:07.927Z,59.90
2018-03-08T19:46:14.060Z,59.90
2018-03-08T19:51:18.133Z,60.20
2018-03-08T19:56:21.804Z,60.20
2018-03-08T20:01:25.158Z,60.50
2018-03-08T20:06:29.268Z,60.60
2018-03-08T20:11:32.274Z,60.90
2018-03-08T20:16:35.650Z,61.10
2018-03-08T20:21:38.479Z,61.10
2018-03-08T20:26:42.609Z,61.60
2018-03-08T20:31:45.922Z,61.90
2018-03-08T20:36:50.164Z,62.00
2018-03-08T20:41:53.354Z,62.30
2018-03-08T20:46:56.377Z,62.60
2018-03-08T20:52:00.639Z,62.50
2018-03-08T20:57:03.921Z,62.50
2018-03-08T21:02:08.072Z,62.60
2018-03-08T21:07:12.196Z,62.50
2018-03-08T21:12:16.284Z,62.60
2018-03-08T21:17:20.519Z,62.60
2018-03-08T21:22:23.097Z,62.70
2018-03-08T21:27:26.351Z,62.60
2018-03-08T21:32:30.423Z,62.80
2018-03-08T21:37:35.478Z,62.80
2018-03-08T21:42:39.534Z,62.90
2018-03-08T21:47:42.191Z,63.00
2018-03-08T21:52:46.429Z,62.90
2018-03-08T21:57:49.971Z,63.10
2018-03-08T22:02:54.960Z,63.30
2018-03-08T22:07:57.797Z,63.50
2018-03-08T22:13:01.932Z,63.60
2018-03-08T22:18:04.549Z,63.60
2018-03-08T22:23:07.832Z,63.70
2018-03-08T22:28:13.867Z,63.80
2018-03-08T22:33:16.778Z,63.90
2018-03-08T22:38:21.040Z,64.00
2018-03-08T22:43:23.865Z,64.20
2018-03-08T22:48:28.893Z,64.40
2018-03-08T22:53:31.481Z,64.40
2018-03-08T22:58:34.102Z,64.30
2018-03-08T23:03:37.046Z,64.50
2018-03-08T23:08:40.427Z,64.90
2018-03-08T23:13:43.059Z,64.90
2018-03-08T23:18:47.239Z,64.90
2018-03-08T23:23:50.131Z,64.80
2018-03-08T23:28:56.049Z,65.10
2018-03-08T23:33:58.614Z,65.00
2018-03-08T23:39:01.956Z,65.10
2018-03-08T23:44:04.538Z,65.30
2018-03-08T23:49:08.637Z,65.50
2018-03-08T23:54:11.935Z,65.50
2018-03-08T23:59:14.797Z,65.50
